Regional Weather

 

KMKL - Jackson, TN, USA
Distance from station: WNW 50mi, 81km
Updated: Tue, Jul-07-2020 9:53am CDT
Clear
Clear
 Wind from WNW
Wind: WNW 3 mph , 6 km/h
Temperature: 84°F , 29°C
Heat Index: 89°F , 32°C
Dew Point: 72°F , 22°C
Humidity: 66%
Barometer: 30.03 inHg , 1016.9 hPa
Clouds: Clear
Visibility: 10 miles , 16 km
2020/07/07 14:53 KMKL 071453Z 29003KT 10SM CLR 29/22 A3003 RMK AO2 SLP165 T02940222 51011
KMEM - Memphis, TN, USA
Distance from station: W 108mi, 173km
Updated: Tue, Jul-07-2020 9:54am CDT
Partly cloudy
Partly cloudy
 Wind from SSW
Wind: SSW 3 mph , 6 km/h
Temperature: 84°F , 29°C
Heat Index: 90°F , 32°C
Dew Point: 73°F , 23°C
Humidity: 70%
Barometer: 30.02 inHg , 1016.6 hPa
Clouds: Partly cloudy
Visibility: 10 miles , 16 km
Cloud details: Few Clouds 2500 ft
Partly cloudy 17000 ft
2020/07/07 14:54 KMEM 071454Z 21003KT 10SM FEW025 SCT170 29/23 A3002 RMK AO2 SLP162 T02890233 51013
 
KBNA - Nashville, TN, USA
Distance from station: NE 97mi, 157km
Updated: Tue, Jul-07-2020 9:53am CDT
Few Clouds
Few Clouds
 Wind from SSW
Wind: SSW 6 mph , 9 km/h
Temperature: 86°F , 30°C
Heat Index: 92°F , 33°C
Dew Point: 72°F , 22°C
Humidity: 62%
Barometer: 30.03 inHg , 1016.9 hPa
Clouds: Few Clouds
Visibility: 10 miles , 16 km
Cloud details: Few Clouds 4000 ft
Few Clouds 25000 ft
2020/07/07 14:53 KBNA 071453Z 20005KT 10SM FEW040 FEW250 30/22 A3003 RMK AO2 SLP163 T03000217 50009
KCKV - Clarksville, TN, USA
Distance from station: NNE 99mi, 159km
Updated: Tue, Jul-07-2020 9:52am CDT
Clear
Clear
 Wind from varies
Wind: varies 3 mph , 6 km/h
Temperature: 84°F , 29°C
Heat Index: 92°F , 33°C
Dew Point: 75°F , 24°C
Humidity: 74%
Barometer: 30.03 inHg , 1016.9 hPa
Clouds: Clear
Visibility: 10 miles , 16 km
2020/07/07 14:52 KCKV 071452Z AUTO VRB03KT 10SM CLR 29/24 A3003 RMK AO2 SLP161 T02890239 51010
 
KPAH - Paducah, KY, USA
Distance from station: NNW 128mi, 205km
Updated: Tue, Jul-07-2020 9:53am CDT
Clear
Clear
 Wind from calm
Wind: Calm
Temperature: 88°F , 31°C
Heat Index: 95°F , 35°C
Dew Point: 72°F , 22°C
Humidity: 59%
Barometer: 30.02 inHg , 1016.6 hPa
Clouds: Clear
Visibility: 10 miles , 16 km
2020/07/07 14:53 KPAH 071453Z 00000KT 10SM CLR 31/22 A3002 RMK AO2 SLP159 T03060217 51010
KCHA - Chattanooga, TN, USA
Distance from station: E 165mi, 265km
Updated: Tue, Jul-07-2020 9:53am CDT
Mostly cloudy
Mostly cloudy
 Wind from SSW
Wind: SSW 3 mph , 6 km/h
Temperature: 82°F , 28°C
Heat Index: 86°F , 30°C
Dew Point: 70°F , 21°C
Humidity: 66%
Barometer: 30.04 inHg , 1017.3 hPa
Clouds: Mostly cloudy
Visibility: 10 miles , 16 km
Cloud details: Partly cloudy 2800 ft
Partly cloudy 15000 ft
Mostly cloudy 18000 ft
Mostly cloudy 25000 ft
2020/07/07 14:53 KCHA 071453Z 21003KT 10SM SCT028 SCT150 BKN180 BKN250 28/21 A3004 RMK AO2 SLP162 MDT CU N-NE T02780211 51009
 
KTYS - Knoxville, TN, USA
Distance from station: E 234mi, 377km
Updated: Tue, Jul-07-2020 9:53am CDT
Mostly cloudy
Mostly cloudy
 Wind from N
Wind: N 5 mph , 7 km/h
Temperature: 79°F , 26°C
Dew Point: 68°F , 20°C
Humidity: 70%
Barometer: 30.05 inHg , 1017.6 hPa
Clouds: Mostly cloudy
Visibility: 10 miles , 16 km
Cloud details: Few Clouds 2000 ft
Mostly cloudy 16000 ft
Mostly cloudy 25000 ft
2020/07/07 14:53 KTYS 071453Z 35004KT 10SM FEW020 BKN160 BKN250 26/20 A3005 RMK AO2 SLP161 60000 T02560200 53012 $
KLIT - Little Rock, AR, USA
Distance from station: W 240mi, 386km
Updated: Tue, Jul-07-2020 9:53am CDT
Few Clouds
Few Clouds
 Wind from calm
Wind: Calm
Temperature: 82°F , 28°C
Heat Index: 87°F , 31°C
Dew Point: 73°F , 23°C
Humidity: 74%
Barometer: 30.01 inHg , 1016.3 hPa
Clouds: Few Clouds
Visibility: 10 miles , 16 km
Cloud details: Few Clouds 2000 ft
Few Clouds 12000 ft
2020/07/07 14:53 KLIT 071453Z 00000KT 10SM FEW020 FEW120 28/23 A3001 RMK AO2 SLP161 T02830233 50010

Refresh Page for latest data.